Time;durP1;ratioP1;P1;durP2;ratioP2;P2;SDS_P1;SDS_P2;PMS_P1;PMS_P2;Temp;Humidity;BMP_temperature;BMP_pressure;BME280_temperature;BME280_humidity;BME280_pressure;Samples;Min_cycle;Max_cycle;Signal;HPM_P1;HPM_P2
2023/03/23 00:02:23;;;;;;;0.50;0.50;;;;;;;;;;5111346;28;20212;-85
2023/03/23 00:04:51;;;;;;;0.50;0.50;;;;;;;;;;5111379;28;20203;-85
2023/03/23 00:07:21;;;;;;;0.40;0.40;;;;;;;;;;5111135;28;20200;-85
2023/03/23 00:09:52;;;;;;;0.50;0.50;;;;;;;;;;5111545;28;20188;-86
2023/03/23 00:12:20;;;;;;;0.50;0.50;;;;;;;;;;5111194;28;20192;-85
2023/03/23 00:14:47;;;;;;;0.50;0.50;;;;;;;;;;5111360;28;20222;-85
2023/03/23 00:17:15;;;;;;;0.50;0.50;;;;;;;;;;5111147;28;20196;-83
2023/03/23 00:19:51;;;;;;;0.50;0.50;;;;;;;;;;5110895;28;20228;-85
2023/03/23 00:22:21;;;;;;;0.50;0.50;;;;;;;;;;5110883;28;20256;-86
2023/03/23 00:24:50;;;;;;;7.00;5.00;;;;;;;;;;5111254;28;20203;-85
2023/03/23 00:27:17;;;;;;;8.73;5.30;;;;;;;;;;5110615;28;20196;-85
2023/03/23 00:29:45;;;;;;;3.13;2.90;;;;;;;;;;5110979;28;20298;-83
2023/03/23 00:32:16;;;;;;;5.20;4.57;;;;;;;;;;5111119;28;20196;-84
2023/03/23 00:34:45;;;;;;;2.17;2.03;;;;;;;;;;5111120;28;20192;-85
2023/03/23 00:37:16;;;;;;;2.83;2.60;;;;;;;;;;5110953;28;20246;-85
2023/03/23 00:39:45;;;;;;;5.03;3.17;;;;;;;;;;5111017;28;20277;-85
2023/03/23 00:42:13;;;;;;;9.27;3.03;;;;;;;;;;5114470;28;20322;-84
2023/03/23 00:44:41;;;;;;;3.40;2.93;;;;;;;;;;5114845;28;20208;-85
2023/03/23 00:47:09;;;;;;;2.40;2.20;;;;;;;;;;5115149;28;20193;-85
2023/03/23 00:49:37;;;;;;;8.30;4.73;;;;;;;;;;5114556;28;20196;-85
2023/03/23 00:52:05;;;;;;;3.37;1.93;;;;;;;;;;5115048;28;20196;-85
2023/03/23 00:54:33;;;;;;;4.50;2.90;;;;;;;;;;5114849;28;20195;-84
2023/03/23 00:57:02;;;;;;;5.00;3.20;;;;;;;;;;5114945;28;20199;-84
2023/03/23 00:59:29;;;;;;;4.33;3.53;;;;;;;;;;5115058;28;20246;-85
2023/03/23 01:01:57;;;;;;;3.63;2.77;;;;;;;;;;5115081;28;20216;-83
2023/03/23 01:04:24;;;;;;;5.57;2.63;;;;;;;;;;5114673;28;20203;-84
2023/03/23 01:06:52;;;;;;;6.10;3.70;;;;;;;;;;5114810;28;20578;-85
2023/03/23 01:09:21;;;;;;;7.83;3.30;;;;;;;;;;5114648;28;20200;-84
2023/03/23 01:11:49;;;;;;;7.03;1.93;;;;;;;;;;5114397;28;20207;-84
2023/03/23 01:14:18;;;;;;;3.70;2.73;;;;;;;;;;5114261;28;20246;-84
2023/03/23 01:16:45;;;;;;;5.40;2.80;;;;;;;;;;5114329;28;20200;-83
2023/03/23 01:19:13;;;;;;;3.10;2.80;;;;;;;;;;5114379;28;20334;-84
2023/03/23 01:21:40;;;;;;;3.20;2.57;;;;;;;;;;5114104;28;20289;-84
2023/03/23 01:24:08;;;;;;;4.73;3.90;;;;;;;;;;5114179;28;20286;-83
2023/03/23 01:26:35;;;;;;;3.07;2.07;;;;;;;;;;5114516;28;20192;-84
2023/03/23 01:29:03;;;;;;;3.90;2.03;;;;;;;;;;5114350;28;20228;-83
2023/03/23 01:31:31;;;;;;;3.73;2.23;;;;;;;;;;5114181;28;20291;-84
2023/03/23 01:33:59;;;;;;;3.90;1.77;;;;;;;;;;5114476;28;20196;-83
2023/03/23 01:36:28;;;;;;;2.40;1.67;;;;;;;;;;5113951;28;20461;-84
2023/03/23 01:38:57;;;;;;;2.43;2.20;;;;;;;;;;5113998;28;20433;-83
2023/03/23 01:41:25;;;;;;;3.33;1.93;;;;;;;;;;5114109;28;20328;-83
2023/03/23 01:43:57;;;;;;;4.80;3.00;;;;;;;;;;5114150;28;20192;-83
2023/03/23 01:46:24;;;;;;;4.03;3.63;;;;;;;;;;5113477;28;20208;-83
2023/03/23 01:48:53;;;;;;;3.37;3.07;;;;;;;;;;5113977;28;20210;-83
2023/03/23 01:51:22;;;;;;;3.87;2.60;;;;;;;;;;5113220;28;20206;-81
2023/03/23 01:53:52;;;;;;;4.63;3.13;;;;;;;;;;5113660;28;20522;-83
2023/03/23 01:56:24;;;;;;;3.30;2.50;;;;;;;;;;5113959;28;20199;-83
2023/03/23 01:58:52;;;;;;;3.23;1.93;;;;;;;;;;5114054;28;20250;-83
2023/03/23 02:01:21;;;;;;;5.33;2.10;;;;;;;;;;5113189;28;20200;-83
2023/03/23 02:03:49;;;;;;;4.50;2.10;;;;;;;;;;5113714;28;20264;-83
2023/03/23 02:06:18;;;;;;;8.03;3.83;;;;;;;;;;5113282;28;20251;-83
2023/03/23 02:08:46;;;;;;;4.23;1.43;;;;;;;;;;5113121;28;20253;-83
2023/03/23 02:11:14;;;;;;;2.93;2.50;;;;;;;;;;5113555;28;20200;-83
2023/03/23 02:13:42;;;;;;;2.37;2.10;;;;;;;;;;5113747;28;20196;-83
2023/03/23 02:16:15;;;;;;;4.53;2.17;;;;;;;;;;5113337;28;20236;-83
2023/03/23 02:18:49;;;;;;;2.50;1.53;;;;;;;;;;5113383;28;20200;-83
2023/03/23 02:21:33;;;;;;;5.43;2.00;;;;;;;;;;5112740;28;20267;-83
2023/03/23 02:24:21;;;;;;;3.73;1.97;;;;;;;;;;5113296;28;20200;-82
2023/03/23 02:26:53;;;;;;;2.40;2.20;;;;;;;;;;5079876;28;20192;-82
2023/03/23 02:29:36;;;;;;;2.37;2.17;;;;;;;;;;5112916;28;20216;-83
2023/03/23 02:32:09;;;;;;;3.63;2.57;;;;;;;;;;5109317;28;20192;-83
2023/03/23 02:34:40;;;;;;;3.70;2.67;;;;;;;;;;5113340;28;20200;-83
2023/03/23 02:37:10;;;;;;;4.80;3.20;;;;;;;;;;5112613;28;20200;-83
2023/03/23 02:39:39;;;;;;;5.77;3.90;;;;;;;;;;5112723;28;20200;-83
2023/03/23 02:42:08;;;;;;;6.33;3.23;;;;;;;;;;5112967;28;20220;-82
2023/03/23 02:44:37;;;;;;;5.03;3.50;;;;;;;;;;5112638;28;20223;-83
2023/03/23 02:47:06;;;;;;;5.73;4.27;;;;;;;;;;5112690;28;20185;-83
2023/03/23 02:49:36;;;;;;;3.37;2.70;;;;;;;;;;5112495;28;20242;-83
2023/03/23 02:52:06;;;;;;;3.80;2.33;;;;;;;;;;5112407;28;20214;-83
2023/03/23 02:54:33;;;;;;;1.43;1.20;;;;;;;;;;5112793;28;20216;-83
2023/03/23 02:57:02;;;;;;;7.23;4.00;;;;;;;;;;5112354;28;20189;-82
2023/03/23 02:59:29;;;;;;;3.97;2.83;;;;;;;;;;5112391;28;20193;-82
2023/03/23 03:02:03;;;;;;;6.90;3.33;;;;;;;;;;5112183;28;20236;-82
2023/03/23 03:04:33;;;;;;;6.17;2.73;;;;;;;;;;5111269;28;20250;-83
2023/03/23 03:07:09;;;;;;;8.23;3.43;;;;;;;;;;5112176;28;20216;-82
2023/03/23 03:09:41;;;;;;;7.43;3.20;;;;;;;;;;5112527;28;20218;-83
2023/03/23 03:12:12;;;;;;;3.77;1.60;;;;;;;;;;5112013;28;20185;-83
2023/03/23 03:14:42;;;;;;;4.53;2.17;;;;;;;;;;5112394;28;20397;-83
2023/03/23 03:17:15;;;;;;;5.40;2.47;;;;;;;;;;5112302;28;20285;-83
2023/03/23 03:19:43;;;;;;;4.97;2.10;;;;;;;;;;5111962;28;20295;-83
2023/03/23 03:22:13;;;;;;;3.63;2.57;;;;;;;;;;5111916;28;20318;-83
2023/03/23 03:24:42;;;;;;;7.60;1.90;;;;;;;;;;5112205;28;20227;-83
2023/03/23 03:27:14;;;;;;;7.87;3.67;;;;;;;;;;5111998;28;20249;-83
2023/03/23 03:29:42;;;;;;;6.03;3.73;;;;;;;;;;5111811;28;20192;-83
2023/03/23 03:32:13;;;;;;;4.93;2.83;;;;;;;;;;5112042;28;20203;-83
2023/03/23 03:34:41;;;;;;;6.23;3.07;;;;;;;;;;5111728;28;20227;-83
2023/03/23 03:37:08;;;;;;;9.50;3.23;;;;;;;;;;5111831;28;20192;-84
2023/03/23 03:39:37;;;;;;;5.53;2.97;;;;;;;;;;5112073;28;20228;-83
2023/03/23 03:42:05;;;;;;;4.73;2.60;;;;;;;;;;5111302;28;20216;-83
2023/03/23 03:44:32;;;;;;;5.47;2.60;;;;;;;;;;5111762;28;20226;-83
2023/03/23 03:47:00;;;;;;;9.60;2.60;;;;;;;;;;5111379;28;20200;-83
2023/03/23 03:49:27;;;;;;;6.03;3.13;;;;;;;;;;5111373;28;20277;-83
2023/03/23 03:51:54;;;;;;;6.50;2.93;;;;;;;;;;5111937;28;20203;-83
2023/03/23 03:54:22;;;;;;;7.23;3.70;;;;;;;;;;5111639;28;20295;-83
2023/03/23 03:56:51;;;;;;;9.13;3.03;;;;;;;;;;5111422;28;20227;-83
2023/03/23 03:59:19;;;;;;;5.53;3.37;;;;;;;;;;5111190;28;20192;-83
2023/03/23 04:01:46;;;;;;;7.83;2.73;;;;;;;;;;5111589;28;20216;-83
2023/03/23 04:04:13;;;;;;;4.80;2.07;;;;;;;;;;5111264;28;20201;-83
2023/03/23 04:06:41;;;;;;;5.20;2.93;;;;;;;;;;5111263;28;20218;-83
2023/03/23 04:09:08;;;;;;;11.83;2.53;;;;;;;;;;5111247;28;20243;-83
2023/03/23 04:11:36;;;;;;;14.70;3.00;;;;;;;;;;5111363;28;20201;-83
2023/03/23 04:14:04;;;;;;;4.70;2.30;;;;;;;;;;5111399;28;20196;-82
2023/03/23 04:16:34;;;;;;;4.80;2.70;;;;;;;;;;5111009;28;20193;-83
2023/03/23 04:19:01;;;;;;;6.70;3.13;;;;;;;;;;5111187;28;20204;-83
2023/03/23 04:21:29;;;;;;;8.63;2.03;;;;;;;;;;5110824;28;20267;-83
2023/03/23 04:23:58;;;;;;;5.53;2.83;;;;;;;;;;5111187;28;20220;-83
2023/03/23 04:26:26;;;;;;;8.13;2.37;;;;;;;;;;5111065;28;20298;-83
2023/03/23 04:28:53;;;;;;;6.73;2.60;;;;;;;;;;5111415;28;20229;-83
2023/03/23 04:31:24;;;;;;;10.93;2.97;;;;;;;;;;5110816;28;20227;-82
2023/03/23 04:33:52;;;;;;;11.93;2.80;;;;;;;;;;5111041;28;20192;-83
2023/03/23 04:36:22;;;;;;;9.57;2.40;;;;;;;;;;5111105;28;20218;-82
2023/03/23 04:38:54;;;;;;;5.27;2.20;;;;;;;;;;5110660;28;20214;-83
2023/03/23 04:41:22;;;;;;;5.77;2.27;;;;;;;;;;5111072;28;20196;-83
2023/03/23 04:43:52;;;;;;;5.97;2.87;;;;;;;;;;5111012;28;20212;-83
2023/03/23 04:46:21;;;;;;;13.60;3.87;;;;;;;;;;5110704;28;20204;-83
2023/03/23 04:48:49;;;;;;;15.43;5.47;;;;;;;;;;5110730;28;20197;-82
2023/03/23 04:51:17;;;;;;;4.63;2.70;;;;;;;;;;5111298;28;20201;-83
2023/03/23 04:53:44;;;;;;;13.70;4.13;;;;;;;;;;5110822;28;20191;-82
2023/03/23 04:56:13;;;;;;;9.47;2.83;;;;;;;;;;5111191;28;20195;-83
2023/03/23 04:58:40;;;;;;;14.60;3.43;;;;;;;;;;5111120;28;20220;-82
2023/03/23 05:01:08;;;;;;;17.43;3.43;;;;;;;;;;5111390;28;20195;-83
2023/03/23 05:03:35;;;;;;;9.60;4.50;;;;;;;;;;5110240;28;20275;-83
2023/03/23 05:06:05;;;;;;;15.17;4.73;;;;;;;;;;5110619;28;20474;-83
2023/03/23 05:08:32;;;;;;;6.47;2.07;;;;;;;;;;5110719;28;20260;-83
2023/03/23 05:11:00;;;;;;;16.43;3.23;;;;;;;;;;5110532;28;20199;-82
2023/03/23 05:13:28;;;;;;;20.60;4.07;;;;;;;;;;5110569;28;20195;-83
2023/03/23 05:15:56;;;;;;;6.53;2.90;;;;;;;;;;5110737;28;20246;-83
2023/03/23 05:18:23;;;;;;;8.00;4.03;;;;;;;;;;5110987;28;20196;-83
2023/03/23 05:20:52;;;;;;;12.77;4.33;;;;;;;;;;5110160;28;20319;-83
2023/03/23 05:23:24;;;;;;;8.23;3.10;;;;;;;;;;5110291;28;20224;-82
2023/03/23 05:25:54;;;;;;;14.50;4.43;;;;;;;;;;5110839;28;20195;-83
2023/03/23 05:28:22;;;;;;;10.23;6.40;;;;;;;;;;5114143;28;20233;-83
2023/03/23 05:30:50;;;;;;;8.57;3.47;;;;;;;;;;5114185;28;20253;-82
2023/03/23 05:33:17;;;;;;;5.50;2.87;;;;;;;;;;5114327;28;20198;-82
2023/03/23 05:35:45;;;;;;;11.03;3.67;;;;;;;;;;5113988;28;20211;-82
2023/03/23 05:38:12;;;;;;;11.17;4.50;;;;;;;;;;5114286;28;20194;-83
2023/03/23 05:40:41;;;;;;;8.57;3.20;;;;;;;;;;5114059;28;20206;-83
2023/03/23 05:43:08;;;;;;;13.87;4.30;;;;;;;;;;5113593;28;20218;-83
2023/03/23 05:45:36;;;;;;;12.77;3.17;;;;;;;;;;5113664;28;20234;-83
2023/03/23 05:48:03;;;;;;;9.40;3.73;;;;;;;;;;5113818;28;20248;-83
2023/03/23 05:50:30;;;;;;;12.87;4.80;;;;;;;;;;5113693;28;20228;-83
2023/03/23 05:52:57;;;;;;;5.30;3.20;;;;;;;;;;5114081;28;20195;-83
2023/03/23 05:55:25;;;;;;;11.97;6.10;;;;;;;;;;5113849;28;20287;-83
2023/03/23 05:57:53;;;;;;;13.07;6.50;;;;;;;;;;5113870;28;20278;-83
2023/03/23 06:00:23;;;;;;;10.80;3.37;;;;;;;;;;5113625;28;20218;-82
2023/03/23 06:02:51;;;;;;;15.80;4.23;;;;;;;;;;5113506;28;20262;-83
2023/03/23 06:05:19;;;;;;;17.40;4.57;;;;;;;;;;5113174;28;20220;-81
2023/03/23 06:07:47;;;;;;;9.13;3.63;;;;;;;;;;5113615;28;20238;-83
2023/03/23 06:10:14;;;;;;;13.33;4.73;;;;;;;;;;5113657;28;20253;-83
2023/03/23 06:12:42;;;;;;;9.07;2.70;;;;;;;;;;5113439;28;20298;-83
2023/03/23 06:15:12;;;;;;;9.07;3.30;;;;;;;;;;5113215;28;20244;-83
2023/03/23 06:17:40;;;;;;;9.33;2.97;;;;;;;;;;5113314;28;20206;-82
2023/03/23 06:20:09;;;;;;;16.20;3.73;;;;;;;;;;5113231;28;20214;-82
2023/03/23 06:22:37;;;;;;;18.17;4.63;;;;;;;;;;5113048;28;20241;-82
2023/03/23 06:25:06;;;;;;;21.17;5.50;;;;;;;;;;5112984;28;20200;-83
2023/03/23 06:27:33;;;;;;;16.03;4.60;;;;;;;;;;5113267;28;20199;-83
2023/03/23 06:30:00;;;;;;;17.10;6.03;;;;;;;;;;5112773;28;20227;-83
2023/03/23 06:32:30;;;;;;;19.47;5.50;;;;;;;;;;5112932;28;20226;-83
2023/03/23 06:34:57;;;;;;;14.97;8.10;;;;;;;;;;5113358;28;20473;-79
2023/03/23 06:37:25;;;;;;;18.47;5.00;;;;;;;;;;5113022;28;20203;-79
2023/03/23 06:39:52;;;;;;;13.47;3.63;;;;;;;;;;5112665;28;20202;-79
2023/03/23 06:42:19;;;;;;;8.83;3.27;;;;;;;;;;5113163;28;20195;-79
2023/03/23 06:44:47;;;;;;;10.30;3.87;;;;;;;;;;5112632;28;20227;-80
2023/03/23 06:47:14;;;;;;;10.17;4.73;;;;;;;;;;5112759;28;20290;-80
2023/03/23 06:49:43;;;;;;;20.80;4.33;;;;;;;;;;5112705;28;20206;-80
2023/03/23 06:52:10;;;;;;;16.77;4.40;;;;;;;;;;5113056;28;20219;-79
2023/03/23 06:54:37;;;;;;;6.13;2.77;;;;;;;;;;5112581;28;20198;-80
2023/03/23 06:57:05;;;;;;;7.17;3.80;;;;;;;;;;5112767;28;20206;-80
2023/03/23 06:59:32;;;;;;;10.53;4.33;;;;;;;;;;5112875;28;20221;-79
2023/03/23 07:01:59;;;;;;;11.17;4.90;;;;;;;;;;5112489;28;20202;-80
2023/03/23 07:04:27;;;;;;;9.97;2.93;;;;;;;;;;5112475;28;20223;-80
2023/03/23 07:06:56;;;;;;;12.17;4.03;;;;;;;;;;5112701;28;20226;-80
2023/03/23 07:09:23;;;;;;;11.80;4.83;;;;;;;;;;5112598;28;20231;-79
2023/03/23 07:11:51;;;;;;;13.97;4.07;;;;;;;;;;5112535;28;20203;-80
2023/03/23 07:14:19;;;;;;;8.43;2.87;;;;;;;;;;5112419;28;20290;-80
2023/03/23 07:16:46;;;;;;;18.80;4.40;;;;;;;;;;5112302;28;20291;-80
2023/03/23 07:19:13;;;;;;;19.97;5.00;;;;;;;;;;5112576;28;20228;-80
2023/03/23 07:21:41;;;;;;;18.53;4.63;;;;;;;;;;5112344;28;20277;-80
2023/03/23 07:24:13;;;;;;;14.87;3.50;;;;;;;;;;5112287;28;20218;-80
2023/03/23 07:26:41;;;;;;;12.53;4.43;;;;;;;;;;5112144;28;20286;-80
2023/03/23 07:29:09;;;;;;;17.73;4.47;;;;;;;;;;5112470;28;20230;-80
2023/03/23 07:31:37;;;;;;;12.47;3.20;;;;;;;;;;5112283;28;20225;-80
2023/03/23 07:34:05;;;;;;;13.37;2.33;;;;;;;;;;5111961;28;20183;-80
2023/03/23 07:36:35;;;;;;;15.20;4.07;;;;;;;;;;5112420;28;20290;-80
2023/03/23 07:39:02;;;;;;;5.23;2.43;;;;;;;;;;5095316;28;20250;-80
2023/03/23 07:41:31;;;;;;;14.40;5.17;;;;;;;;;;5112075;28;20260;-80
2023/03/23 07:43:58;;;;;;;5.50;2.83;;;;;;;;;;5111778;28;20283;-80
2023/03/23 07:46:26;;;;;;;18.43;5.57;;;;;;;;;;5112282;28;20203;-80
2023/03/23 07:48:53;;;;;;;20.97;4.87;;;;;;;;;;5111638;28;20191;-80
2023/03/23 07:51:21;;;;;;;3.47;2.27;;;;;;;;;;5111808;28;20223;-80
2023/03/23 07:53:49;;;;;;;8.43;3.07;;;;;;;;;;5111952;28;20192;-80
2023/03/23 07:56:19;;;;;;;16.47;5.93;;;;;;;;;;5111610;28;20199;-80
2023/03/23 07:58:48;;;;;;;9.30;3.93;;;;;;;;;;5111732;28;20210;-80
2023/03/23 08:01:15;;;;;;;24.77;5.53;;;;;;;;;;5111551;28;20267;-81
2023/03/23 08:03:44;;;;;;;3.57;2.20;;;;;;;;;;5111600;28;20226;-80
2023/03/23 08:06:11;;;;;;;20.30;5.57;;;;;;;;;;5111660;28;20204;-80
2023/03/23 08:08:40;;;;;;;15.17;4.77;;;;;;;;;;5111640;28;20261;-80
2023/03/23 08:11:07;;;;;;;13.30;4.40;;;;;;;;;;5111168;28;20259;-80
2023/03/23 08:13:35;;;;;;;19.97;4.67;;;;;;;;;;5111458;28;20192;-80
2023/03/23 08:16:04;;;;;;;3.43;2.57;;;;;;;;;;5111318;28;20207;-81
2023/03/23 08:18:31;;;;;;;7.90;4.00;;;;;;;;;;5111463;28;20205;-80
2023/03/23 08:20:59;;;;;;;7.50;2.90;;;;;;;;;;5111169;28;20232;-80
2023/03/23 08:23:26;;;;;;;9.37;3.10;;;;;;;;;;5111473;28;20282;-80
2023/03/23 08:25:54;;;;;;;10.80;2.57;;;;;;;;;;5111272;28;20211;-80
2023/03/23 08:28:23;;;;;;;10.53;2.57;;;;;;;;;;5111264;28;20219;-80
2023/03/23 08:30:50;;;;;;;6.43;2.23;;;;;;;;;;5111111;28;20206;-80
2023/03/23 08:33:21;;;;;;;11.77;4.07;;;;;;;;;;5111462;28;20249;-80
2023/03/23 08:35:56;;;;;;;9.53;3.80;;;;;;;;;;5111258;28;20200;-80
2023/03/23 08:38:23;;;;;;;7.20;3.63;;;;;;;;;;5111595;28;20192;-80
2023/03/23 08:40:51;;;;;;;9.23;3.37;;;;;;;;;;5111316;28;20241;-80
2023/03/23 08:43:18;;;;;;;11.33;2.67;;;;;;;;;;5111083;28;20196;-80
2023/03/23 08:45:46;;;;;;;7.87;2.43;;;;;;;;;;5111239;28;20204;-80
2023/03/23 08:48:13;;;;;;;11.23;2.93;;;;;;;;;;5111233;28;20196;-80
2023/03/23 08:50:42;;;;;;;4.50;2.13;;;;;;;;;;5111005;28;20292;-79
2023/03/23 08:53:09;;;;;;;16.60;2.50;;;;;;;;;;5111022;28;20259;-80
2023/03/23 08:55:36;;;;;;;10.07;2.73;;;;;;;;;;5111040;28;20245;-80
2023/03/23 08:58:04;;;;;;;13.93;3.87;;;;;;;;;;5111480;28;20204;-80
2023/03/23 09:00:32;;;;;;;13.63;3.63;;;;;;;;;;5111213;28;20196;-80
2023/03/23 09:03:00;;;;;;;11.83;3.10;;;;;;;;;;5114296;28;20199;-80
2023/03/23 09:05:28;;;;;;;12.30;2.97;;;;;;;;;;5114629;28;20232;-80
2023/03/23 09:07:58;;;;;;;14.87;2.90;;;;;;;;;;5115217;28;20192;-80
2023/03/23 09:10:26;;;;;;;19.83;6.23;;;;;;;;;;5114743;28;20234;-80
2023/03/23 09:12:54;;;;;;;5.77;1.83;;;;;;;;;;5114718;28;20291;-80
2023/03/23 09:15:22;;;;;;;9.73;3.60;;;;;;;;;;5114988;28;20195;-80
2023/03/23 09:17:51;;;;;;;9.53;3.13;;;;;;;;;;5114954;28;20197;-80
2023/03/23 09:20:21;;;;;;;7.63;3.07;;;;;;;;;;5114658;28;20256;-80
2023/03/23 09:22:49;;;;;;;12.33;3.97;;;;;;;;;;5114303;28;20314;-80
2023/03/23 09:25:21;;;;;;;7.40;2.03;;;;;;;;;;5114411;28;20208;-80
2023/03/23 09:27:52;;;;;;;10.80;3.37;;;;;;;;;;5114468;28;20192;-80
2023/03/23 09:30:20;;;;;;;11.90;4.33;;;;;;;;;;5114396;28;20263;-80
2023/03/23 09:32:47;;;;;;;6.47;2.83;;;;;;;;;;5114064;28;20197;-80
2023/03/23 09:35:16;;;;;;;5.47;2.83;;;;;;;;;;5114658;28;20212;-80
2023/03/23 09:37:44;;;;;;;16.60;6.23;;;;;;;;;;5114337;28;20211;-80
2023/03/23 09:40:14;;;;;;;14.27;3.73;;;;;;;;;;5114524;28;20200;-80
2023/03/23 09:42:58;;;;;;;8.23;2.73;;;;;;;;;;5114521;28;20253;-80
2023/03/23 09:45:27;;;;;;;10.37;3.10;;;;;;;;;;5114349;28;20251;-80
2023/03/23 09:48:03;;;;;;;14.80;3.93;;;;;;;;;;5114368;28;20235;-80
2023/03/23 09:50:32;;;;;;;9.00;3.37;;;;;;;;;;5114077;28;20200;-80
2023/03/23 09:53:02;;;;;;;6.73;3.33;;;;;;;;;;5114178;28;20203;-79
2023/03/23 09:55:30;;;;;;;7.23;2.37;;;;;;;;;;5114491;28;20189;-80
2023/03/23 09:58:02;;;;;;;18.83;4.30;;;;;;;;;;5114143;28;20196;-80
2023/03/23 10:00:32;;;;;;;9.73;2.60;;;;;;;;;;5096835;28;20226;-81
2023/03/23 10:03:02;;;;;;;12.47;2.67;;;;;;;;;;5113947;28;20234;-81
2023/03/23 10:05:34;;;;;;;13.13;4.50;;;;;;;;;;5113800;28;20235;-81
2023/03/23 10:08:03;;;;;;;12.07;4.23;;;;;;;;;;5113831;28;20224;-80
2023/03/23 10:10:35;;;;;;;10.93;4.33;;;;;;;;;;5113851;28;20261;-81
2023/03/23 10:13:06;;;;;;;12.33;3.50;;;;;;;;;;5113310;28;20192;-81
2023/03/23 10:15:36;;;;;;;9.83;2.80;;;;;;;;;;5113659;28;20299;-81
2023/03/23 10:18:04;;;;;;;6.90;3.37;;;;;;;;;;5113560;28;20237;-81
2023/03/23 10:20:38;;;;;;;8.20;4.33;;;;;;;;;;5113211;28;20253;-81
2023/03/23 10:23:11;;;;;;;6.17;2.23;;;;;;;;;;5113407;28;20200;-81
2023/03/23 10:25:41;;;;;;;12.13;2.97;;;;;;;;;;5113763;28;20259;-81
2023/03/23 10:28:13;;;;;;;15.50;5.43;;;;;;;;;;5113278;28;20291;-81
2023/03/23 10:30:42;;;;;;;9.17;2.87;;;;;;;;;;5113334;28;20207;-81
2023/03/23 10:33:13;;;;;;;10.33;3.90;;;;;;;;;;5113467;28;20299;-81
2023/03/23 10:35:42;;;;;;;11.50;4.77;;;;;;;;;;5113581;28;20246;-81
2023/03/23 10:38:13;;;;;;;9.37;2.87;;;;;;;;;;5113287;28;20220;-81
2023/03/23 10:40:56;;;;;;;14.17;2.93;;;;;;;;;;5112951;28;20196;-81
2023/03/23 10:43:26;;;;;;;19.53;3.07;;;;;;;;;;5113088;28;20230;-81
2023/03/23 10:45:56;;;;;;;15.43;3.90;;;;;;;;;;5113132;28;20216;-81
2023/03/23 10:48:27;;;;;;;11.30;3.37;;;;;;;;;;5113064;28;20205;-81
2023/03/23 10:50:56;;;;;;;9.47;3.10;;;;;;;;;;5113011;28;20193;-81
2023/03/23 10:53:25;;;;;;;6.03;1.83;;;;;;;;;;5112917;28;20196;-81
2023/03/23 10:55:53;;;;;;;15.60;4.43;;;;;;;;;;5112842;28;20222;-81
2023/03/23 10:58:28;;;;;;;11.67;3.37;;;;;;;;;;5112894;28;20264;-81
2023/03/23 11:00:56;;;;;;;7.97;3.57;;;;;;;;;;5112784;28;20302;-81
2023/03/23 11:03:29;;;;;;;13.63;5.50;;;;;;;;;;5112619;28;20261;-81
2023/03/23 11:05:58;;;;;;;9.67;3.13;;;;;;;;;;5112837;28;20224;-81
2023/03/23 11:08:26;;;;;;;12.87;4.17;;;;;;;;;;5112616;28;20207;-81
2023/03/23 11:10:55;;;;;;;11.13;2.87;;;;;;;;;;5112820;28;20196;-81
2023/03/23 11:13:23;;;;;;;20.27;5.30;;;;;;;;;;5112347;28;20204;-81
2023/03/23 11:15:52;;;;;;;10.43;3.93;;;;;;;;;;5112545;28;20204;-81
2023/03/23 11:18:23;;;;;;;4.40;2.73;;;;;;;;;;5112692;28;20298;-81
2023/03/23 11:20:53;;;;;;;10.80;4.07;;;;;;;;;;5112587;28;20314;-81
2023/03/23 11:23:22;;;;;;;11.87;3.60;;;;;;;;;;5112439;28;20249;-81
2023/03/23 11:25:55;;;;;;;14.70;5.90;;;;;;;;;;5111633;28;20314;-82
2023/03/23 11:28:22;;;;;;;13.13;4.77;;;;;;;;;;5112654;28;20206;-81
2023/03/23 11:30:54;;;;;;;15.10;3.97;;;;;;;;;;5113033;28;20251;-81
2023/03/23 11:33:25;;;;;;;9.33;4.03;;;;;;;;;;5111771;28;20189;-81
2023/03/23 11:35:54;;;;;;;10.80;4.30;;;;;;;;;;5112628;28;20200;-81
2023/03/23 11:38:25;;;;;;;7.43;2.00;;;;;;;;;;5112005;28;20204;-81
2023/03/23 11:40:53;;;;;;;9.07;2.83;;;;;;;;;;5111995;28;20353;-81
2023/03/23 11:43:22;;;;;;;12.63;3.63;;;;;;;;;;5112337;28;20201;-81
2023/03/23 11:45:55;;;;;;;12.90;3.03;;;;;;;;;;5111895;28;20216;-81
2023/03/23 11:48:26;;;;;;;10.17;3.07;;;;;;;;;;5112171;28;20220;-81
2023/03/23 11:50:55;;;;;;;17.70;4.87;;;;;;;;;;5112076;28;20200;-81
2023/03/23 11:53:34;;;;;;;13.40;3.90;;;;;;;;;;5111896;28;20220;-81
2023/03/23 11:56:06;;;;;;;8.77;2.83;;;;;;;;;;5111705;28;20201;-81
2023/03/23 11:58:35;;;;;;;9.17;3.13;;;;;;;;;;5112102;28;20246;-81
2023/03/23 12:01:06;;;;;;;9.63;3.17;;;;;;;;;;5111972;28;20190;-81
2023/03/23 12:03:52;;;;;;;9.83;2.53;;;;;;;;;;5111505;28;20194;-81
2023/03/23 12:06:23;;;;;;;19.80;6.23;;;;;;;;;;5111690;28;20264;-81
2023/03/23 12:08:58;;;;;;;9.57;2.53;;;;;;;;;;5094718;28;20254;-81
2023/03/23 12:11:27;;;;;;;6.30;3.23;;;;;;;;;;5111739;28;20204;-81
2023/03/23 12:14:01;;;;;;;12.17;3.77;;;;;;;;;;5111479;28;20192;-81
2023/03/23 12:16:39;;;;;;;9.53;3.90;;;;;;;;;;5111303;28;20194;-81
2023/03/23 12:19:12;;;;;;;12.67;3.50;;;;;;;;;;5111306;28;20199;-81
2023/03/23 12:21:45;;;;;;;8.07;2.90;;;;;;;;;;5111532;28;20228;-81
2023/03/23 12:24:20;;;;;;;6.37;2.23;;;;;;;;;;5111124;28;20222;-80
2023/03/23 12:26:50;;;;;;;5.17;2.73;;;;;;;;;;5111540;28;20227;-81
2023/03/23 12:29:26;;;;;;;10.37;3.60;;;;;;;;;;5111528;28;20192;-81
2023/03/23 12:32:01;;;;;;;14.27;2.47;;;;;;;;;;5111265;28;20284;-81
2023/03/23 12:34:34;;;;;;;14.37;3.63;;;;;;;;;;5111401;28;20206;-81
2023/03/23 12:37:07;;;;;;;9.83;3.90;;;;;;;;;;5115366;28;20227;-79
2023/03/23 12:39:58;;;;;;;7.37;2.57;;;;;;;;;;5115854;28;20200;-81
2023/03/23 12:42:31;;;;;;;11.03;4.30;;;;;;;;;;5042160;28;20293;-81
2023/03/23 12:45:02;;;;;;;6.50;2.27;;;;;;;;;;5115425;28;20285;-81
2023/03/23 12:47:37;;;;;;;9.70;2.47;;;;;;;;;;5115219;28;20207;-81
2023/03/23 12:50:08;;;;;;;4.27;2.13;;;;;;;;;;5115251;28;20205;-81
2023/03/23 12:52:41;;;;;;;11.47;3.67;;;;;;;;;;5115060;28;20196;-81
2023/03/23 12:55:15;;;;;;;7.13;2.87;;;;;;;;;;5115289;28;20201;-80
2023/03/23 12:57:45;;;;;;;5.93;1.97;;;;;;;;;;5115381;28;20196;-81
2023/03/23 13:00:16;;;;;;;10.87;3.37;;;;;;;;;;5114850;28;20228;-81
2023/03/23 13:02:46;;;;;;;10.20;3.17;;;;;;;;;;5115390;28;20205;-81
2023/03/23 13:05:27;;;;;;;4.57;1.70;;;;;;;;;;5115252;28;20307;-81
2023/03/23 13:07:58;;;;;;;9.67;3.70;;;;;;;;;;5115358;28;20201;-81
2023/03/23 13:10:28;;;;;;;9.07;3.17;;;;;;;;;;5115243;28;20207;-81
2023/03/23 13:12:56;;;;;;;9.77;3.13;;;;;;;;;;5115532;28;20193;-81
2023/03/23 13:15:31;;;;;;;7.50;2.80;;;;;;;;;;5115240;28;20202;-81
2023/03/23 13:18:11;;;;;;;3.53;1.93;;;;;;;;;;5115018;28;20197;-81
2023/03/23 13:20:47;;;;;;;10.13;3.50;;;;;;;;;;5115172;28;20200;-81
2023/03/23 13:23:16;;;;;;;7.03;2.97;;;;;;;;;;5115089;28;20192;-81
2023/03/23 13:25:50;;;;;;;14.93;3.27;;;;;;;;;;5114669;28;20313;-84
2023/03/23 13:28:20;;;;;;;16.10;3.60;;;;;;;;;;5114760;28;20193;-83
2023/03/23 13:30:58;;;;;;;13.23;3.43;;;;;;;;;;5114863;28;20264;-83
2023/03/23 13:33:27;;;;;;;14.77;2.87;;;;;;;;;;5114555;28;20253;-84
2023/03/23 13:35:57;;;;;;;4.53;2.33;;;;;;;;;;5114945;28;20249;-80
2023/03/23 13:38:26;;;;;;;11.13;3.67;;;;;;;;;;5114724;28;20201;-79
2023/03/23 13:40:54;;;;;;;9.37;2.70;;;;;;;;;;5115176;28;20238;-80
2023/03/23 13:43:51;;;;;;;16.00;9.87;;;;;;;;;;5114559;28;20201;-81
2023/03/23 13:46:30;;;;;;;7.80;3.57;;;;;;;;;;5114491;28;20224;-80
2023/03/23 13:49:18;;;;;;;6.60;2.33;;;;;;;;;;5113852;28;20218;-80
2023/03/23 13:51:54;;;;;;;15.23;4.83;;;;;;;;;;5114742;28;20193;-80
2023/03/23 13:54:26;;;;;;;14.57;3.40;;;;;;;;;;5097224;28;20202;-80
2023/03/23 13:56:55;;;;;;;9.27;3.47;;;;;;;;;;5114503;28;20293;-80
2023/03/23 13:59:34;;;;;;;12.00;2.97;;;;;;;;;;5114498;28;20197;-80
2023/03/23 14:02:20;;;;;;;5.73;2.90;;;;;;;;;;5114503;28;20357;-80
2023/03/23 14:04:49;;;;;;;9.23;4.07;;;;;;;;;;5114252;28;20196;-80
2023/03/23 14:07:18;;;;;;;8.17;2.70;;;;;;;;;;5114110;28;20274;-80
2023/03/23 14:09:47;;;;;;;5.50;2.93;;;;;;;;;;5114244;28;20204;-80
2023/03/23 14:12:17;;;;;;;12.93;4.83;;;;;;;;;;5114379;28;20200;-80
2023/03/23 14:14:45;;;;;;;8.20;3.73;;;;;;;;;;5114020;28;20286;-79
2023/03/23 14:17:15;;;;;;;13.00;3.27;;;;;;;;;;5114094;28;20191;-80
2023/03/23 14:19:43;;;;;;;9.93;3.17;;;;;;;;;;5114025;28;20201;-80
2023/03/23 14:22:20;;;;;;;11.60;3.90;;;;;;;;;;5113836;28;20294;-80
2023/03/23 14:24:47;;;;;;;13.23;4.03;;;;;;;;;;5114195;28;20201;-80
2023/03/23 14:27:16;;;;;;;12.63;4.57;;;;;;;;;;5113366;28;20240;-80
2023/03/23 14:29:43;;;;;;;8.93;2.73;;;;;;;;;;5113906;28;20202;-80
2023/03/23 14:32:16;;;;;;;13.17;3.00;;;;;;;;;;5113590;28;20232;-80
2023/03/23 14:34:43;;;;;;;12.07;4.20;;;;;;;;;;5113997;28;20197;-80
2023/03/23 14:37:13;;;;;;;11.63;3.43;;;;;;;;;;5113605;28;20201;-80
2023/03/23 14:39:45;;;;;;;11.00;4.67;;;;;;;;;;5113404;28;20230;-80
2023/03/23 14:42:15;;;;;;;5.63;2.47;;;;;;;;;;5113435;28;20201;-84
2023/03/23 14:44:43;;;;;;;12.47;3.53;;;;;;;;;;5113425;28;20205;-84
2023/03/23 14:47:15;;;;;;;11.73;3.03;;;;;;;;;;5113260;28;20226;-83
2023/03/23 14:49:44;;;;;;;17.83;5.00;;;;;;;;;;5113108;28;20189;-83
2023/03/23 14:52:12;;;;;;;10.63;5.13;;;;;;;;;;5113219;28;20300;-82
2023/03/23 14:54:42;;;;;;;8.90;3.20;;;;;;;;;;5112612;28;20220;-83